sensor_id;sensor_type;location;lat;lon;timestamp;P1;durP1;ratioP1;P2;durP2;ratioP2
35612;SDS011;22054;51.646;7.078;2023-04-06T00:01:41;0.00;;;0.00;;
35612;SDS011;22054;51.646;7.078;2023-04-06T00:04:07;8.45;;;8.15;;
35612;SDS011;22054;51.646;7.078;2023-04-06T00:06:33;9.93;;;9.52;;
35612;SDS011;22054;51.646;7.078;2023-04-06T00:08:59;9.55;;;9.15;;
35612;SDS011;22054;51.646;7.078;2023-04-06T00:11:25;8.13;;;7.82;;
35612;SDS011;22054;51.646;7.078;2023-04-06T00:13:51;6.57;;;6.32;;
35612;SDS011;22054;51.646;7.078;2023-04-06T00:16:17;7.63;;;7.32;;
35612;SDS011;22054;51.646;7.078;2023-04-06T00:18:43;6.95;;;6.65;;
35612;SDS011;22054;51.646;7.078;2023-04-06T00:21:11;4.43;;;4.25;;
35612;SDS011;22054;51.646;7.078;2023-04-06T00:23:38;0.10;;;0.10;;
35612;SDS011;22054;51.646;7.078;2023-04-06T00:26:04;0.00;;;0.00;;
35612;SDS011;22054;51.646;7.078;2023-04-06T00:28:30;0.10;;;0.10;;
35612;SDS011;22054;51.646;7.078;2023-04-06T00:30:55;0.00;;;0.00;;
35612;SDS011;22054;51.646;7.078;2023-04-06T00:33:21;0.00;;;0.00;;
35612;SDS011;22054;51.646;7.078;2023-04-06T00:35:48;0.10;;;0.10;;
35612;SDS011;22054;51.646;7.078;2023-04-06T00:38:14;0.10;;;0.10;;
35612;SDS011;22054;51.646;7.078;2023-04-06T00:40:40;0.08;;;0.08;;
35612;SDS011;22054;51.646;7.078;2023-04-06T00:43:07;0.05;;;0.05;;
35612;SDS011;22054;51.646;7.078;2023-04-06T00:45:35;0.10;;;0.10;;
35612;SDS011;22054;51.646;7.078;2023-04-06T00:48:03;0.10;;;0.10;;
35612;SDS011;22054;51.646;7.078;2023-04-06T00:50:29;0.00;;;0.00;;
35612;SDS011;22054;51.646;7.078;2023-04-06T00:52:55;0.10;;;0.10;;
35612;SDS011;22054;51.646;7.078;2023-04-06T00:55:20;0.00;;;0.00;;
35612;SDS011;22054;51.646;7.078;2023-04-06T00:57:46;0.10;;;0.10;;
35612;SDS011;22054;51.646;7.078;2023-04-06T01:00:12;0.10;;;0.10;;
35612;SDS011;22054;51.646;7.078;2023-04-06T01:02:39;0.00;;;0.00;;
35612;SDS011;22054;51.646;7.078;2023-04-06T01:05:05;0.00;;;0.00;;
35612;SDS011;22054;51.646;7.078;2023-04-06T02:39:51;0.00;;;0.00;;
35612;SDS011;22054;51.646;7.078;2023-04-06T02:42:17;0.10;;;0.10;;
35612;SDS011;22054;51.646;7.078;2023-04-06T02:44:43;0.10;;;0.10;;
35612;SDS011;22054;51.646;7.078;2023-04-06T02:47:08;0.10;;;0.10;;
35612;SDS011;22054;51.646;7.078;2023-04-06T02:49:34;0.10;;;0.10;;
35612;SDS011;22054;51.646;7.078;2023-04-06T02:52:01;0.10;;;0.10;;
35612;SDS011;22054;51.646;7.078;2023-04-06T02:54:27;0.10;;;0.10;;
35612;SDS011;22054;51.646;7.078;2023-04-06T02:56:53;0.10;;;0.10;;
35612;SDS011;22054;51.646;7.078;2023-04-06T02:59:19;0.10;;;0.10;;
35612;SDS011;22054;51.646;7.078;2023-04-06T03:01:45;0.00;;;0.00;;
35612;SDS011;22054;51.646;7.078;2023-04-06T03:04:10;0.00;;;0.00;;
35612;SDS011;22054;51.646;7.078;2023-04-06T03:06:36;0.05;;;0.05;;
35612;SDS011;22054;51.646;7.078;2023-04-06T03:09:02;0.00;;;0.00;;
35612;SDS011;22054;51.646;7.078;2023-04-06T03:11:28;0.00;;;0.00;;
35612;SDS011;22054;51.646;7.078;2023-04-06T03:13:54;0.00;;;0.00;;
35612;SDS011;22054;51.646;7.078;2023-04-06T03:16:20;0.10;;;0.10;;
35612;SDS011;22054;51.646;7.078;2023-04-06T03:18:45;0.00;;;0.00;;
35612;SDS011;22054;51.646;7.078;2023-04-06T03:21:12;0.08;;;0.08;;
35612;SDS011;22054;51.646;7.078;2023-04-06T03:23:40;0.00;;;0.00;;
35612;SDS011;22054;51.646;7.078;2023-04-06T03:26:06;0.10;;;0.10;;
35612;SDS011;22054;51.646;7.078;2023-04-06T03:28:32;0.10;;;0.10;;
35612;SDS011;22054;51.646;7.078;2023-04-06T03:30:58;0.10;;;0.10;;
35612;SDS011;22054;51.646;7.078;2023-04-06T03:33:24;0.10;;;0.10;;
35612;SDS011;22054;51.646;7.078;2023-04-06T03:35:52;0.10;;;0.10;;
35612;SDS011;22054;51.646;7.078;2023-04-06T03:38:18;0.10;;;0.10;;
35612;SDS011;22054;51.646;7.078;2023-04-06T03:40:44;0.10;;;0.10;;
35612;SDS011;22054;51.646;7.078;2023-04-06T03:43:10;0.10;;;0.10;;
35612;SDS011;22054;51.646;7.078;2023-04-06T03:45:35;0.10;;;0.10;;
35612;SDS011;22054;51.646;7.078;2023-04-06T03:48:01;0.03;;;0.03;;
35612;SDS011;22054;51.646;7.078;2023-04-06T03:50:27;0.00;;;0.00;;
35612;SDS011;22054;51.646;7.078;2023-04-06T03:52:53;0.10;;;0.10;;
35612;SDS011;22054;51.646;7.078;2023-04-06T03:55:18;0.00;;;0.00;;
35612;SDS011;22054;51.646;7.078;2023-04-06T03:57:44;0.10;;;0.10;;
35612;SDS011;22054;51.646;7.078;2023-04-06T04:00:10;0.10;;;0.10;;
35612;SDS011;22054;51.646;7.078;2023-04-06T04:02:36;0.05;;;0.05;;
35612;SDS011;22054;51.646;7.078;2023-04-06T04:05:02;0.10;;;0.10;;
35612;SDS011;22054;51.646;7.078;2023-04-06T04:07:28;0.10;;;0.10;;
35612;SDS011;22054;51.646;7.078;2023-04-06T04:09:54;0.00;;;0.00;;
35612;SDS011;22054;51.646;7.078;2023-04-06T04:12:19;0.08;;;0.08;;
35612;SDS011;22054;51.646;7.078;2023-04-06T04:14:45;0.10;;;0.10;;
35612;SDS011;22054;51.646;7.078;2023-04-06T04:17:11;0.10;;;0.10;;
35612;SDS011;22054;51.646;7.078;2023-04-06T04:19:36;0.10;;;0.10;;
35612;SDS011;22054;51.646;7.078;2023-04-06T04:22:02;0.10;;;0.10;;
35612;SDS011;22054;51.646;7.078;2023-04-06T04:24:29;0.10;;;0.10;;
35612;SDS011;22054;51.646;7.078;2023-04-06T04:26:55;0.10;;;0.10;;
35612;SDS011;22054;51.646;7.078;2023-04-06T04:29:21;0.10;;;0.10;;
35612;SDS011;22054;51.646;7.078;2023-04-06T04:31:47;0.00;;;0.00;;
35612;SDS011;22054;51.646;7.078;2023-04-06T04:34:14;0.10;;;0.10;;
35612;SDS011;22054;51.646;7.078;2023-04-06T04:36:40;0.00;;;0.00;;
35612;SDS011;22054;51.646;7.078;2023-04-06T04:39:09;0.10;;;0.10;;
35612;SDS011;22054;51.646;7.078;2023-04-06T04:41:35;0.10;;;0.10;;
35612;SDS011;22054;51.646;7.078;2023-04-06T04:44:00;0.10;;;0.10;;
35612;SDS011;22054;51.646;7.078;2023-04-06T04:46:26;0.10;;;0.10;;
35612;SDS011;22054;51.646;7.078;2023-04-06T04:48:52;0.00;;;0.00;;
35612;SDS011;22054;51.646;7.078;2023-04-06T04:51:17;0.03;;;0.03;;
35612;SDS011;22054;51.646;7.078;2023-04-06T04:53:44;0.10;;;0.10;;
35612;SDS011;22054;51.646;7.078;2023-04-06T04:56:10;0.10;;;0.10;;
35612;SDS011;22054;51.646;7.078;2023-04-06T04:58:36;0.00;;;0.00;;
35612;SDS011;22054;51.646;7.078;2023-04-06T05:01:02;0.10;;;0.10;;
35612;SDS011;22054;51.646;7.078;2023-04-06T05:03:28;0.08;;;0.08;;
35612;SDS011;22054;51.646;7.078;2023-04-06T05:05:54;0.08;;;0.08;;
35612;SDS011;22054;51.646;7.078;2023-04-06T05:08:20;0.10;;;0.10;;
35612;SDS011;22054;51.646;7.078;2023-04-06T05:10:46;0.10;;;0.10;;
35612;SDS011;22054;51.646;7.078;2023-04-06T05:13:13;0.10;;;0.10;;
35612;SDS011;22054;51.646;7.078;2023-04-06T05:15:39;0.10;;;0.10;;
35612;SDS011;22054;51.646;7.078;2023-04-06T05:18:07;0.10;;;0.10;;
35612;SDS011;22054;51.646;7.078;2023-04-06T05:20:34;0.00;;;0.00;;
35612;SDS011;22054;51.646;7.078;2023-04-06T05:23:00;0.05;;;0.05;;
35612;SDS011;22054;51.646;7.078;2023-04-06T05:25:26;0.10;;;0.10;;
35612;SDS011;22054;51.646;7.078;2023-04-06T05:27:53;0.10;;;0.10;;
35612;SDS011;22054;51.646;7.078;2023-04-06T05:30:19;0.00;;;0.00;;
35612;SDS011;22054;51.646;7.078;2023-04-06T05:32:46;0.10;;;0.10;;
35612;SDS011;22054;51.646;7.078;2023-04-06T05:35:12;0.10;;;0.10;;
35612;SDS011;22054;51.646;7.078;2023-04-06T05:37:38;0.10;;;0.10;;
35612;SDS011;22054;51.646;7.078;2023-04-06T05:40:05;0.03;;;0.03;;
35612;SDS011;22054;51.646;7.078;2023-04-06T05:42:41;0.10;;;0.10;;
35612;SDS011;22054;51.646;7.078;2023-04-06T05:45:08;0.03;;;0.03;;
35612;SDS011;22054;51.646;7.078;2023-04-06T05:47:45;0.10;;;0.10;;
35612;SDS011;22054;51.646;7.078;2023-04-06T05:50:14;0.10;;;0.10;;
35612;SDS011;22054;51.646;7.078;2023-04-06T05:52:41;0.10;;;0.10;;
35612;SDS011;22054;51.646;7.078;2023-04-06T05:55:08;0.00;;;0.00;;
35612;SDS011;22054;51.646;7.078;2023-04-06T05:57:35;0.00;;;0.00;;
35612;SDS011;22054;51.646;7.078;2023-04-06T06:00:01;0.10;;;0.10;;
35612;SDS011;22054;51.646;7.078;2023-04-06T06:02:32;0.10;;;0.10;;
35612;SDS011;22054;51.646;7.078;2023-04-06T06:04:58;0.10;;;0.10;;
35612;SDS011;22054;51.646;7.078;2023-04-06T06:07:24;0.10;;;0.10;;
35612;SDS011;22054;51.646;7.078;2023-04-06T06:09:49;0.10;;;0.10;;
35612;SDS011;22054;51.646;7.078;2023-04-06T06:12:15;0.10;;;0.10;;
35612;SDS011;22054;51.646;7.078;2023-04-06T06:14:41;0.10;;;0.10;;
35612;SDS011;22054;51.646;7.078;2023-04-06T06:17:07;0.10;;;0.10;;
35612;SDS011;22054;51.646;7.078;2023-04-06T06:19:33;0.00;;;0.00;;
35612;SDS011;22054;51.646;7.078;2023-04-06T06:21:59;0.10;;;0.10;;
35612;SDS011;22054;51.646;7.078;2023-04-06T06:24:27;0.10;;;0.10;;
35612;SDS011;22054;51.646;7.078;2023-04-06T06:26:53;0.10;;;0.10;;
35612;SDS011;22054;51.646;7.078;2023-04-06T06:29:18;0.00;;;0.00;;
35612;SDS011;22054;51.646;7.078;2023-04-06T06:31:44;0.10;;;0.10;;
35612;SDS011;22054;51.646;7.078;2023-04-06T06:34:10;0.10;;;0.10;;
35612;SDS011;22054;51.646;7.078;2023-04-06T06:36:37;0.00;;;0.00;;
35612;SDS011;22054;51.646;7.078;2023-04-06T06:39:03;0.00;;;0.00;;
35612;SDS011;22054;51.646;7.078;2023-04-06T06:41:29;0.00;;;0.00;;
35612;SDS011;22054;51.646;7.078;2023-04-06T06:43:54;0.10;;;0.10;;
35612;SDS011;22054;51.646;7.078;2023-04-06T06:46:20;0.10;;;0.10;;
35612;SDS011;22054;51.646;7.078;2023-04-06T06:48:46;0.00;;;0.00;;
35612;SDS011;22054;51.646;7.078;2023-04-06T06:51:11;0.00;;;0.00;;
35612;SDS011;22054;51.646;7.078;2023-04-06T06:53:37;0.03;;;0.03;;
35612;SDS011;22054;51.646;7.078;2023-04-06T06:56:03;0.08;;;0.08;;
35612;SDS011;22054;51.646;7.078;2023-04-06T06:58:29;0.05;;;0.05;;
35612;SDS011;22054;51.646;7.078;2023-04-06T07:00:58;0.00;;;0.00;;
35612;SDS011;22054;51.646;7.078;2023-04-06T07:03:24;0.10;;;0.10;;
35612;SDS011;22054;51.646;7.078;2023-04-06T07:05:50;0.10;;;0.10;;
35612;SDS011;22054;51.646;7.078;2023-04-06T07:08:22;0.03;;;0.03;;
35612;SDS011;22054;51.646;7.078;2023-04-06T07:10:50;0.08;;;0.08;;
35612;SDS011;22054;51.646;7.078;2023-04-06T07:13:17;0.00;;;0.00;;
35612;SDS011;22054;51.646;7.078;2023-04-06T07:18:13;0.00;;;0.00;;
35612;SDS011;22054;51.646;7.078;2023-04-06T07:20:39;0.00;;;0.00;;
35612;SDS011;22054;51.646;7.078;2023-04-06T07:23:05;0.00;;;0.00;;
35612;SDS011;22054;51.646;7.078;2023-04-06T07:25:31;0.00;;;0.00;;
35612;SDS011;22054;51.646;7.078;2023-04-06T07:27:57;0.00;;;0.00;;
35612;SDS011;22054;51.646;7.078;2023-04-06T07:30:23;0.10;;;0.10;;
35612;SDS011;22054;51.646;7.078;2023-04-06T07:32:51;0.00;;;0.00;;
35612;SDS011;22054;51.646;7.078;2023-04-06T07:35:17;0.10;;;0.10;;
35612;SDS011;22054;51.646;7.078;2023-04-06T07:37:43;0.00;;;0.00;;
35612;SDS011;22054;51.646;7.078;2023-04-06T07:40:08;0.00;;;0.00;;
35612;SDS011;22054;51.646;7.078;2023-04-06T07:42:34;0.00;;;0.00;;
35612;SDS011;22054;51.646;7.078;2023-04-06T07:45:00;0.10;;;0.10;;
35612;SDS011;22054;51.646;7.078;2023-04-06T07:47:26;0.00;;;0.00;;
35612;SDS011;22054;51.646;7.078;2023-04-06T07:49:54;0.10;;;0.10;;
35612;SDS011;22054;51.646;7.078;2023-04-06T07:52:21;0.00;;;0.00;;
35612;SDS011;22054;51.646;7.078;2023-04-06T07:54:46;0.00;;;0.00;;
35612;SDS011;22054;51.646;7.078;2023-04-06T07:57:14;0.00;;;0.00;;
35612;SDS011;22054;51.646;7.078;2023-04-06T07:59:40;0.00;;;0.00;;
35612;SDS011;22054;51.646;7.078;2023-04-06T08:02:05;0.00;;;0.00;;
35612;SDS011;22054;51.646;7.078;2023-04-06T08:04:31;0.00;;;0.00;;
35612;SDS011;22054;51.646;7.078;2023-04-06T08:06:57;0.00;;;0.00;;
35612;SDS011;22054;51.646;7.078;2023-04-06T08:09:23;0.00;;;0.00;;
35612;SDS011;22054;51.646;7.078;2023-04-06T08:11:48;0.00;;;0.00;;
35612;SDS011;22054;51.646;7.078;2023-04-06T08:14:14;0.00;;;0.00;;
35612;SDS011;22054;51.646;7.078;2023-04-06T08:16:41;0.00;;;0.00;;
35612;SDS011;22054;51.646;7.078;2023-04-06T08:19:07;0.00;;;0.00;;
35612;SDS011;22054;51.646;7.078;2023-04-06T08:21:34;0.00;;;0.00;;
35612;SDS011;22054;51.646;7.078;2023-04-06T08:24:04;0.00;;;0.00;;
35612;SDS011;22054;51.646;7.078;2023-04-06T08:26:31;0.00;;;0.00;;
35612;SDS011;22054;51.646;7.078;2023-04-06T08:28:57;0.00;;;0.00;;
35612;SDS011;22054;51.646;7.078;2023-04-06T08:31:22;0.00;;;0.00;;
35612;SDS011;22054;51.646;7.078;2023-04-06T08:33:48;0.00;;;0.00;;
35612;SDS011;22054;51.646;7.078;2023-04-06T08:36:14;0.00;;;0.00;;
35612;SDS011;22054;51.646;7.078;2023-04-06T08:38:41;0.00;;;0.00;;
35612;SDS011;22054;51.646;7.078;2023-04-06T08:41:08;0.00;;;0.00;;
35612;SDS011;22054;51.646;7.078;2023-04-06T08:46:24;0.00;;;0.00;;
35612;SDS011;22054;51.646;7.078;2023-04-06T08:48:55;0.00;;;0.00;;
35612;SDS011;22054;51.646;7.078;2023-04-06T08:51:23;0.00;;;0.00;;
35612;SDS011;22054;51.646;7.078;2023-04-06T08:53:51;0.00;;;0.00;;
35612;SDS011;22054;51.646;7.078;2023-04-06T08:56:24;0.00;;;0.00;;
35612;SDS011;22054;51.646;7.078;2023-04-06T08:58:53;0.00;;;0.00;;
35612;SDS011;22054;51.646;7.078;2023-04-06T09:01:21;0.00;;;0.00;;
35612;SDS011;22054;51.646;7.078;2023-04-06T09:03:50;0.00;;;0.00;;
35612;SDS011;22054;51.646;7.078;2023-04-06T09:06:21;0.00;;;0.00;;
35612;SDS011;22054;51.646;7.078;2023-04-06T09:08:47;0.00;;;0.00;;
35612;SDS011;22054;51.646;7.078;2023-04-06T09:11:12;0.00;;;0.00;;
35612;SDS011;22054;51.646;7.078;2023-04-06T09:13:50;0.00;;;0.00;;
35612;SDS011;22054;51.646;7.078;2023-04-06T09:16:19;0.00;;;0.00;;
35612;SDS011;22054;51.646;7.078;2023-04-06T09:18:45;0.00;;;0.00;;
35612;SDS011;22054;51.646;7.078;2023-04-06T09:21:11;0.00;;;0.00;;
35612;SDS011;22054;51.646;7.078;2023-04-06T09:23:37;0.00;;;0.00;;
35612;SDS011;22054;51.646;7.078;2023-04-06T09:26:14;0.00;;;0.00;;
35612;SDS011;22054;51.646;7.078;2023-04-06T09:31:13;0.00;;;0.00;;
35612;SDS011;22054;51.646;7.078;2023-04-06T09:33:43;0.00;;;0.00;;
35612;SDS011;22054;51.646;7.078;2023-04-06T09:36:10;0.00;;;0.00;;
35612;SDS011;22054;51.646;7.078;2023-04-06T09:38:51;0.00;;;0.00;;
35612;SDS011;22054;51.646;7.078;2023-04-06T09:41:24;0.00;;;0.00;;
35612;SDS011;22054;51.646;7.078;2023-04-06T09:43:51;0.00;;;0.00;;
35612;SDS011;22054;51.646;7.078;2023-04-06T09:46:27;0.00;;;0.00;;
35612;SDS011;22054;51.646;7.078;2023-04-06T09:48:59;0.00;;;0.00;;
35612;SDS011;22054;51.646;7.078;2023-04-06T09:51:28;0.00;;;0.00;;
35612;SDS011;22054;51.646;7.078;2023-04-06T09:54:00;0.00;;;0.00;;
35612;SDS011;22054;51.646;7.078;2023-04-06T09:56:30;0.00;;;0.00;;
35612;SDS011;22054;51.646;7.078;2023-04-06T09:59:05;0.00;;;0.00;;
35612;SDS011;22054;51.646;7.078;2023-04-06T10:01:44;0.00;;;0.00;;
35612;SDS011;22054;51.646;7.078;2023-04-06T10:04:24;0.00;;;0.00;;
35612;SDS011;22054;51.646;7.078;2023-04-06T10:07:01;0.00;;;0.00;;
35612;SDS011;22054;51.646;7.078;2023-04-06T10:09:28;0.00;;;0.00;;
35612;SDS011;22054;51.646;7.078;2023-04-06T10:12:02;0.00;;;0.00;;
35612;SDS011;22054;51.646;7.078;2023-04-06T10:14:33;0.00;;;0.00;;
35612;SDS011;22054;51.646;7.078;2023-04-06T10:17:03;0.00;;;0.00;;
35612;SDS011;22054;51.646;7.078;2023-04-06T10:19:32;0.00;;;0.00;;
35612;SDS011;22054;51.646;7.078;2023-04-06T10:22:07;0.00;;;0.00;;
35612;SDS011;22054;51.646;7.078;2023-04-06T10:24:36;0.00;;;0.00;;
35612;SDS011;22054;51.646;7.078;2023-04-06T10:27:02;0.00;;;0.00;;
35612;SDS011;22054;51.646;7.078;2023-04-06T10:29:41;0.00;;;0.00;;
35612;SDS011;22054;51.646;7.078;2023-04-06T10:32:13;0.00;;;0.00;;
35612;SDS011;22054;51.646;7.078;2023-04-06T10:34:39;0.00;;;0.00;;
35612;SDS011;22054;51.646;7.078;2023-04-06T10:37:14;0.00;;;0.00;;
35612;SDS011;22054;51.646;7.078;2023-04-06T10:39:53;0.00;;;0.00;;
35612;SDS011;22054;51.646;7.078;2023-04-06T10:42:24;0.00;;;0.00;;
35612;SDS011;22054;51.646;7.078;2023-04-06T10:45:03;0.00;;;0.00;;
35612;SDS011;22054;51.646;7.078;2023-04-06T10:47:41;0.00;;;0.00;;
35612;SDS011;22054;51.646;7.078;2023-04-06T10:50:06;0.00;;;0.00;;
35612;SDS011;22054;51.646;7.078;2023-04-06T10:52:32;0.00;;;0.00;;
35612;SDS011;22054;51.646;7.078;2023-04-06T10:54:58;0.00;;;0.00;;
35612;SDS011;22054;51.646;7.078;2023-04-06T10:57:28;0.00;;;0.00;;
35612;SDS011;22054;51.646;7.078;2023-04-06T10:59:55;0.00;;;0.00;;
35612;SDS011;22054;51.646;7.078;2023-04-06T11:02:21;0.00;;;0.00;;
35612;SDS011;22054;51.646;7.078;2023-04-06T11:04:56;0.00;;;0.00;;
35612;SDS011;22054;51.646;7.078;2023-04-06T11:07:24;0.00;;;0.00;;
35612;SDS011;22054;51.646;7.078;2023-04-06T11:09:51;0.00;;;0.00;;
35612;SDS011;22054;51.646;7.078;2023-04-06T11:12:24;0.00;;;0.00;;
35612;SDS011;22054;51.646;7.078;2023-04-06T11:14:55;0.00;;;0.00;;
35612;SDS011;22054;51.646;7.078;2023-04-06T11:17:32;0.00;;;0.00;;
35612;SDS011;22054;51.646;7.078;2023-04-06T11:20:01;0.00;;;0.00;;
35612;SDS011;22054;51.646;7.078;2023-04-06T11:22:28;0.00;;;0.00;;
35612;SDS011;22054;51.646;7.078;2023-04-06T11:25:08;0.00;;;0.00;;
35612;SDS011;22054;51.646;7.078;2023-04-06T11:27:34;0.00;;;0.00;;
35612;SDS011;22054;51.646;7.078;2023-04-06T11:30:00;0.00;;;0.00;;
35612;SDS011;22054;51.646;7.078;2023-04-06T11:32:27;0.00;;;0.00;;
35612;SDS011;22054;51.646;7.078;2023-04-06T11:34:53;0.00;;;0.00;;
35612;SDS011;22054;51.646;7.078;2023-04-06T11:37:19;0.00;;;0.00;;
35612;SDS011;22054;51.646;7.078;2023-04-06T11:39:49;0.00;;;0.00;;
35612;SDS011;22054;51.646;7.078;2023-04-06T11:42:23;0.00;;;0.00;;
35612;SDS011;22054;51.646;7.078;2023-04-06T11:44:51;0.00;;;0.00;;
35612;SDS011;22054;51.646;7.078;2023-04-06T11:47:19;0.00;;;0.00;;
35612;SDS011;22054;51.646;7.078;2023-04-06T11:49:52;0.00;;;0.00;;
35612;SDS011;22054;51.646;7.078;2023-04-06T11:52:24;0.00;;;0.00;;
35612;SDS011;22054;51.646;7.078;2023-04-06T11:54:52;0.00;;;0.00;;
35612;SDS011;22054;51.646;7.078;2023-04-06T11:57:21;0.00;;;0.00;;
35612;SDS011;22054;51.646;7.078;2023-04-06T11:59:50;0.00;;;0.00;;
35612;SDS011;22054;51.646;7.078;2023-04-06T12:02:17;0.00;;;0.00;;
35612;SDS011;22054;51.646;7.078;2023-04-06T12:04:43;0.00;;;0.00;;
35612;SDS011;22054;51.646;7.078;2023-04-06T12:07:09;0.00;;;0.00;;
35612;SDS011;22054;51.646;7.078;2023-04-06T12:09:35;0.00;;;0.00;;
35612;SDS011;22054;51.646;7.078;2023-04-06T12:12:04;0.00;;;0.00;;
35612;SDS011;22054;51.646;7.078;2023-04-06T12:14:29;0.00;;;0.00;;
35612;SDS011;22054;51.646;7.078;2023-04-06T12:16:58;0.00;;;0.00;;
35612;SDS011;22054;51.646;7.078;2023-04-06T12:21:51;0.00;;;0.00;;
35612;SDS011;22054;51.646;7.078;2023-04-06T12:24:22;0.00;;;0.00;;
35612;SDS011;22054;51.646;7.078;2023-04-06T12:26:48;0.00;;;0.00;;
35612;SDS011;22054;51.646;7.078;2023-04-06T12:29:14;0.00;;;0.00;;
35612;SDS011;22054;51.646;7.078;2023-04-06T12:31:39;0.00;;;0.00;;
35612;SDS011;22054;51.646;7.078;2023-04-06T12:34:07;0.00;;;0.00;;
35612;SDS011;22054;51.646;7.078;2023-04-06T12:36:33;0.00;;;0.00;;
35612;SDS011;22054;51.646;7.078;2023-04-06T12:38:59;0.00;;;0.00;;
35612;SDS011;22054;51.646;7.078;2023-04-06T12:41:27;0.00;;;0.00;;
35612;SDS011;22054;51.646;7.078;2023-04-06T12:43:53;0.00;;;0.00;;
35612;SDS011;22054;51.646;7.078;2023-04-06T12:46:19;0.00;;;0.00;;
35612;SDS011;22054;51.646;7.078;2023-04-06T12:48:45;0.00;;;0.00;;
35612;SDS011;22054;51.646;7.078;2023-04-06T12:51:11;0.00;;;0.00;;
35612;SDS011;22054;51.646;7.078;2023-04-06T12:53:37;0.00;;;0.00;;
35612;SDS011;22054;51.646;7.078;2023-04-06T12:56:09;0.00;;;0.00;;
35612;SDS011;22054;51.646;7.078;2023-04-06T12:58:40;0.00;;;0.00;;
35612;SDS011;22054;51.646;7.078;2023-04-06T13:01:06;0.00;;;0.00;;
35612;SDS011;22054;51.646;7.078;2023-04-06T13:03:33;0.00;;;0.00;;
35612;SDS011;22054;51.646;7.078;2023-04-06T13:06:02;0.00;;;0.00;;
35612;SDS011;22054;51.646;7.078;2023-04-06T13:08:28;0.00;;;0.00;;
35612;SDS011;22054;51.646;7.078;2023-04-06T13:10:53;0.00;;;0.00;;
35612;SDS011;22054;51.646;7.078;2023-04-06T13:13:23;0.00;;;0.00;;
35612;SDS011;22054;51.646;7.078;2023-04-06T13:15:52;0.00;;;0.00;;
35612;SDS011;22054;51.646;7.078;2023-04-06T13:18:20;0.00;;;0.00;;
35612;SDS011;22054;51.646;7.078;2023-04-06T13:20:47;0.00;;;0.00;;
35612;SDS011;22054;51.646;7.078;2023-04-06T13:23:14;0.00;;;0.00;;
35612;SDS011;22054;51.646;7.078;2023-04-06T13:25:40;0.00;;;0.00;;
35612;SDS011;22054;51.646;7.078;2023-04-06T13:28:05;0.00;;;0.00;;
35612;SDS011;22054;51.646;7.078;2023-04-06T13:30:32;0.00;;;0.00;;
35612;SDS011;22054;51.646;7.078;2023-04-06T13:32:58;0.00;;;0.00;;
35612;SDS011;22054;51.646;7.078;2023-04-06T13:35:24;0.00;;;0.00;;
35612;SDS011;22054;51.646;7.078;2023-04-06T13:37:50;0.00;;;0.00;;
35612;SDS011;22054;51.646;7.078;2023-04-06T13:40:17;0.00;;;0.00;;
35612;SDS011;22054;51.646;7.078;2023-04-06T13:42:43;0.00;;;0.00;;
35612;SDS011;22054;51.646;7.078;2023-04-06T13:45:11;0.00;;;0.00;;
35612;SDS011;22054;51.646;7.078;2023-04-06T13:47:36;0.00;;;0.00;;
35612;SDS011;22054;51.646;7.078;2023-04-06T13:50:08;0.00;;;0.00;;
35612;SDS011;22054;51.646;7.078;2023-04-06T13:52:35;0.00;;;0.00;;
35612;SDS011;22054;51.646;7.078;2023-04-06T13:57:50;0.00;;;0.00;;
35612;SDS011;22054;51.646;7.078;2023-04-06T14:00:16;0.00;;;0.00;;
35612;SDS011;22054;51.646;7.078;2023-04-06T14:02:42;0.00;;;0.00;;
35612;SDS011;22054;51.646;7.078;2023-04-06T14:05:08;0.00;;;0.00;;
35612;SDS011;22054;51.646;7.078;2023-04-06T14:07:35;0.00;;;0.00;;
35612;SDS011;22054;51.646;7.078;2023-04-06T14:10:01;0.00;;;0.00;;
35612;SDS011;22054;51.646;7.078;2023-04-06T14:12:27;0.00;;;0.00;;
35612;SDS011;22054;51.646;7.078;2023-04-06T14:14:53;0.00;;;0.00;;
35612;SDS011;22054;51.646;7.078;2023-04-06T14:17:19;0.00;;;0.00;;
35612;SDS011;22054;51.646;7.078;2023-04-06T14:19:45;0.00;;;0.00;;
35612;SDS011;22054;51.646;7.078;2023-04-06T14:22:11;0.00;;;0.00;;
35612;SDS011;22054;51.646;7.078;2023-04-06T14:24:38;0.00;;;0.00;;
35612;SDS011;22054;51.646;7.078;2023-04-06T14:27:04;0.00;;;0.00;;
35612;SDS011;22054;51.646;7.078;2023-04-06T14:29:29;0.00;;;0.00;;
35612;SDS011;22054;51.646;7.078;2023-04-06T14:31:55;0.00;;;0.00;;
35612;SDS011;22054;51.646;7.078;2023-04-06T14:34:25;0.00;;;0.00;;
35612;SDS011;22054;51.646;7.078;2023-04-06T14:36:52;0.00;;;0.00;;
35612;SDS011;22054;51.646;7.078;2023-04-06T14:39:17;0.00;;;0.00;;
35612;SDS011;22054;51.646;7.078;2023-04-06T14:41:43;0.00;;;0.00;;
35612;SDS011;22054;51.646;7.078;2023-04-06T14:44:10;0.00;;;0.00;;
35612;SDS011;22054;51.646;7.078;2023-04-06T14:46:37;0.00;;;0.00;;
35612;SDS011;22054;51.646;7.078;2023-04-06T14:49:03;0.00;;;0.00;;
35612;SDS011;22054;51.646;7.078;2023-04-06T14:51:29;0.00;;;0.00;;
35612;SDS011;22054;51.646;7.078;2023-04-06T14:53:55;0.00;;;0.00;;
35612;SDS011;22054;51.646;7.078;2023-04-06T14:56:21;0.00;;;0.00;;
35612;SDS011;22054;51.646;7.078;2023-04-06T14:58:49;0.00;;;0.00;;
35612;SDS011;22054;51.646;7.078;2023-04-06T15:03:45;0.00;;;0.00;;
35612;SDS011;22054;51.646;7.078;2023-04-06T15:06:11;0.00;;;0.00;;
35612;SDS011;22054;51.646;7.078;2023-04-06T15:08:43;0.00;;;0.00;;
35612;SDS011;22054;51.646;7.078;2023-04-06T15:11:09;0.00;;;0.00;;
35612;SDS011;22054;51.646;7.078;2023-04-06T15:13:36;0.00;;;0.00;;
35612;SDS011;22054;51.646;7.078;2023-04-06T15:16:03;0.00;;;0.00;;
35612;SDS011;22054;51.646;7.078;2023-04-06T15:18:29;0.00;;;0.00;;
35612;SDS011;22054;51.646;7.078;2023-04-06T15:20:55;0.00;;;0.00;;
35612;SDS011;22054;51.646;7.078;2023-04-06T15:23:21;0.00;;;0.00;;
35612;SDS011;22054;51.646;7.078;2023-04-06T15:25:47;0.00;;;0.00;;
35612;SDS011;22054;51.646;7.078;2023-04-06T15:28:13;0.00;;;0.00;;
35612;SDS011;22054;51.646;7.078;2023-04-06T15:30:38;0.00;;;0.00;;
35612;SDS011;22054;51.646;7.078;2023-04-06T15:33:06;0.00;;;0.00;;
35612;SDS011;22054;51.646;7.078;2023-04-06T15:35:33;0.00;;;0.00;;
35612;SDS011;22054;51.646;7.078;2023-04-06T15:38:04;0.00;;;0.00;;
35612;SDS011;22054;51.646;7.078;2023-04-06T15:40:31;0.00;;;0.00;;
35612;SDS011;22054;51.646;7.078;2023-04-06T15:42:58;0.00;;;0.00;;
35612;SDS011;22054;51.646;7.078;2023-04-06T15:45:27;0.00;;;0.00;;
35612;SDS011;22054;51.646;7.078;2023-04-06T15:47:52;0.00;;;0.00;;
35612;SDS011;22054;51.646;7.078;2023-04-06T15:50:18;0.00;;;0.00;;
35612;SDS011;22054;51.646;7.078;2023-04-06T15:52:44;0.00;;;0.00;;
35612;SDS011;22054;51.646;7.078;2023-04-06T15:55:10;0.00;;;0.00;;
35612;SDS011;22054;51.646;7.078;2023-04-06T15:57:36;0.00;;;0.00;;
35612;SDS011;22054;51.646;7.078;2023-04-06T16:00:02;0.00;;;0.00;;
35612;SDS011;22054;51.646;7.078;2023-04-06T16:02:30;0.00;;;0.00;;
35612;SDS011;22054;51.646;7.078;2023-04-06T16:04:56;0.00;;;0.00;;
35612;SDS011;22054;51.646;7.078;2023-04-06T16:07:23;0.00;;;0.00;;
35612;SDS011;22054;51.646;7.078;2023-04-06T16:09:50;0.00;;;0.00;;
35612;SDS011;22054;51.646;7.078;2023-04-06T16:12:16;0.00;;;0.00;;
35612;SDS011;22054;51.646;7.078;2023-04-06T16:14:43;0.00;;;0.00;;
35612;SDS011;22054;51.646;7.078;2023-04-06T16:17:09;0.00;;;0.00;;
35612;SDS011;22054;51.646;7.078;2023-04-06T16:19:36;0.00;;;0.00;;
35612;SDS011;22054;51.646;7.078;2023-04-06T16:22:02;0.00;;;0.00;;
35612;SDS011;22054;51.646;7.078;2023-04-06T16:24:28;0.00;;;0.00;;
35612;SDS011;22054;51.646;7.078;2023-04-06T16:26:54;0.00;;;0.00;;
35612;SDS011;22054;51.646;7.078;2023-04-06T16:29:21;0.00;;;0.00;;
35612;SDS011;22054;51.646;7.078;2023-04-06T16:31:47;0.00;;;0.00;;
35612;SDS011;22054;51.646;7.078;2023-04-06T16:34:13;0.00;;;0.00;;
35612;SDS011;22054;51.646;7.078;2023-04-06T16:36:39;0.00;;;0.00;;